Aéroport de Chambéry Savoie

Le forum sur les aéroports français: Beauvais, Brest, Rennes, Caen, Metz/Nancy, Biarritz, Pau, Toulon...
Répondre
martin
ATR-42
Messages : 50
Enregistré le : ven. 23 déc. 2011, 19:48

Re: Aéroport de Chambéry Savoie

Message par martin » jeu. 23 oct. 2014, 19:13

Yamal Airlines programme 2 vols en A320 le samedi cet hiver
LLM 9381 DME CMF A320
LLM 9387 DME CMF A320

pierre
B777
Messages : 363
Enregistré le : jeu. 25 sept. 2008, 23:58
Localisation : CHAMBERY

Re: Aéroport de Chambéry Savoie

Message par pierre » ven. 24 oct. 2014, 13:55

martin a écrit :Yamal Airlines programme 2 vols en A320 le samedi cet hiver
LLM 9381 DME CMF A320
LLM 9387 DME CMF A320
Ces vols seraient programmé en A321 ce qui serait une première à CMF, mais ils ne sont pas confirmés

pierre
B777
Messages : 363
Enregistré le : jeu. 25 sept. 2008, 23:58
Localisation : CHAMBERY

Re: Aéroport de Chambéry Savoie

Message par pierre » jeu. 20 nov. 2014, 18:28

pierre a écrit :
martin a écrit :Yamal Airlines programme 2 vols en A320 le samedi cet hiver
LLM 9381 DME CMF A320
LLM 9387 DME CMF A320
Ces vols seraient programmé en A321 ce qui serait une première à CMF, mais ils ne sont pas confirmés
Me suis planté, c'est bien des A320

pierre
B777
Messages : 363
Enregistré le : jeu. 25 sept. 2008, 23:58
Localisation : CHAMBERY

Re: Aéroport de Chambéry Savoie

Message par pierre » jeu. 22 janv. 2015, 12:10

Passage d'un A400M hier pour check flt; impressionnant surtout à basse vitesse!!

Dam's
Messages : 15
Enregistré le : dim. 25 janv. 2015, 01:44

Re: Aéroport de Chambéry Savoie

Message par Dam's » dim. 25 janv. 2015, 01:48

pierre a écrit :Passage d'un A400M hier pour check flt; impressionnant surtout à basse vitesse!!
Bonsoir,
tu peux m'en dire plus sur son passage ? Tu as une photo stp ?

Dam's
Messages : 15
Enregistré le : dim. 25 janv. 2015, 01:44

Re: Aéroport de Chambéry Savoie

Message par Dam's » dim. 25 janv. 2015, 22:22

Bonsoir,
comment se fait-il que, régulièrement, des avions sont détournés sur Grenoble, ou comme ce soir, sur Lyon pour le Paris-Chambéry?
Merci de votre réponse

AVION
A380
Messages : 14887
Enregistré le : mer. 1 oct. 2008, 12:13
Localisation : PARIS

Re: Aéroport de Chambéry Savoie

Message par AVION » dim. 25 janv. 2015, 23:09

Dam's a écrit :Bonsoir,
comment se fait-il que, régulièrement, des avions sont détournés sur Grenoble, ou comme ce soir, sur Lyon pour le Paris-Chambéry?
Merci de votre réponse
Les heures d'ouvertures du terrain, le brouillard

AVION
A380
Messages : 14887
Enregistré le : mer. 1 oct. 2008, 12:13
Localisation : PARIS

Re: Aéroport de Chambéry Savoie

Message par AVION » dim. 25 janv. 2015, 23:11

- Altitude de l'aérodrome : 779 ft
- Code IATA : CMF
- Voir les cartes d'approche


Pas la météo aujourd'hui

LFLB - Chambery / Aix-Les-Bains
DERNIER METAR :
252100Z AUTO 01011KT 330V030 9999 BKN043 OVC240 03/M04 Q1027

METARs EXPIRÉS :
252030Z AUTO 01012KT 9999 BKN042 OVC180 03/M04 Q1027
252000Z AUTO 36012KT 9999 FEW044 OVC180 03/M04 Q1028
251930Z AUTO 01015KT 9999 FEW044 OVC190 03/M05 Q1027
251900Z AUTO 01016KT 9999 FEW045 OVC190 03/M05 Q1027
251830Z AUTO 36016G27KT 320V030 9999 FEW046 BKN190 03/M05 Q1027
251800Z AUTO 35015KT 330V030 9999 FEW046 03/M05 Q1027

TAF TAF LFLB
Valide du 25 à 18h jusqu'au 26 à 18h UTC

251700Z 2518/2618 36015G25KT 9999 FEW040
BECMG 2521/2524 36012KT
BECMG 2604/2608 FEW033 BKN083
BECMG 2612/2615 36006KT BKN040
BECMG 2615/2617 VRB02KT 5000 SNRA BKN008

AVION
A380
Messages : 14887
Enregistré le : mer. 1 oct. 2008, 12:13
Localisation : PARIS

Re: Aéroport de Chambéry Savoie

Message par AVION » dim. 25 janv. 2015, 23:12

aéroport civil. ouvert à la CAP. ouvert au trafic international.
IFR-VFR nuit
heures d'ouverture : 8h00 - 21h00

pierre
B777
Messages : 363
Enregistré le : jeu. 25 sept. 2008, 23:58
Localisation : CHAMBERY

Re: Aéroport de Chambéry Savoie

Message par pierre » lun. 26 janv. 2015, 17:08

Pour le vol Transavia d'hier soir,il s'agit d'un problème de vent, l'atterrissage de nuit en 36 étant pour l'instant suspendu.

pierre
B777
Messages : 363
Enregistré le : jeu. 25 sept. 2008, 23:58
Localisation : CHAMBERY

Re: Aéroport de Chambéry Savoie

Message par pierre » mar. 27 janv. 2015, 12:20

Dam's a écrit :
pierre a écrit :Passage d'un A400M hier pour check flt; impressionnant surtout à basse vitesse!!
Bonsoir,
tu peux m'en dire plus sur son passage ? Tu as une photo stp ?
une approche, deux tours de piste 36 et un depart sur Calvi
AVION a écrit :aéroport civil. ouvert à la CAP. ouvert au trafic international.
IFR-VFR nuit
heures d'ouverture : 8h00 - 21h00
0700-2300 le samedi
0800-2200 le vendredi et le dimanche.... pendant la saison hnivernale bien sur

pierre
B777
Messages : 363
Enregistré le : jeu. 25 sept. 2008, 23:58
Localisation : CHAMBERY

Re: Aéroport de Chambéry Savoie

Message par pierre » sam. 21 févr. 2015, 15:56

Chutes de neige en cours
TRA5011 dérouté à Bâle
BEE84H et BEE513B déroutés à Clermont Ferrand
TOM59G dérouté à Turin
AZP64P dérouté à Nice

AVION
A380
Messages : 14887
Enregistré le : mer. 1 oct. 2008, 12:13
Localisation : PARIS

Re: Aéroport de Chambéry Savoie

Message par AVION » jeu. 11 juin 2015, 07:54

Une nouvelle ligne pour Flybe chaque Samedi à partir du 19/12/15.

Horaires:

BE4595 CWL 13:50–16:15 CMF E95 6
BE4596 CMF 17:05–17:30 CWL E95 6

pierre
B777
Messages : 363
Enregistré le : jeu. 25 sept. 2008, 23:58
Localisation : CHAMBERY

Re: Aéroport de Chambéry Savoie

Message par pierre » dim. 26 juil. 2015, 00:44

Grosse nouveauté pour W15/16: des vols en provenance de Tel Aviv proposés par un TO Israélien

http://www.pingwin.co.il/

pierre
B777
Messages : 363
Enregistré le : jeu. 25 sept. 2008, 23:58
Localisation : CHAMBERY

Re: Aéroport de Chambéry Savoie

Message par pierre » sam. 1 août 2015, 17:34

BA augmente ses fréquences sur LCY pour les vacances de fin d'année et passe de 3/7 à quotidien

AVION
A380
Messages : 14887
Enregistré le : mer. 1 oct. 2008, 12:13
Localisation : PARIS

Re: Aéroport de Chambéry Savoie

Message par AVION » dim. 9 août 2015, 22:32

Fréquentation hivernale en baisse à l'aéroport de Chambéry Savoie

C'est une fin de saison hivernale mitigée cette année pour l'aéroport de Chambéry. Si l'aviation d'affaire se maintient par rapport à la saison précédente, le trafic général est en baisse de 5%, la faute à la météo capricieuse

C'est en quelque sorte la porte d'entrée vers les stations de ski.Chaque hiver, des milliers de touristes posent le pied sur le tarmac de l'aéroport de Chambéry. Mais cette année avec 214.000 passagers, la fréquentation est en baisse de 5%.
En cause, des conditions météo difficiles. Les fortes chutes de neige de la fin du mois de décembre dernier ont immobilisé les avions et bloqué les passagers dans l'aérogare en pleine période de vacances.

La compagnie aérienne Transavia, une filiale d'Air France KLM, qui depuis 2 ans assurait des liaisons saisonnières Paris-Chambéry, a décidé de ne pas renouveler cette offre. Un coup dur pour l'aéroport savoyard, tant cette ligne avait suscité d'espoirs.

Toutefois, avec ses 13 lignes régulières directes vers l'Europe, l'aéroport attire une vingtaine de tour-opérateurs principalement britanniques, scandinaves et russes.

L'aviation d'affaires, elle, reste importante. Le trafic d'affaires a doublé depuis les dix dernières années.

Avatar du membre
Flyzen
A380
Messages : 11514
Enregistré le : mer. 24 sept. 2008, 07:14
Localisation : Vendée (proche 44)

Re: Aéroport de Chambéry Savoie

Message par Flyzen » lun. 10 août 2015, 11:08

AVION a écrit :...La compagnie aérienne Transavia, une filiale d'Air France KLM, qui depuis 2 ans assurait des liaisons saisonnières Paris-Chambéry, a décidé de ne pas renouveler cette offre. Un coup dur pour l'aéroport savoyard, tant cette ligne avait suscité d'espoirs...
Les "seuls" espoirs ne font pas souvent des pax et après non plus de bon yield.
Michel

pierre
B777
Messages : 363
Enregistré le : jeu. 25 sept. 2008, 23:58
Localisation : CHAMBERY

Re: Aéroport de Chambéry Savoie

Message par pierre » mar. 11 août 2015, 11:28

AVION a écrit : Mais cette année avec 214.000 passagers, la fréquentation est en baisse de 5%.
En cause, des conditions météo difficiles. Les fortes chutes de neige de la fin du mois de décembre dernier ont immobilisé les avions et bloqué les passagers
C 'est plus probablement du à la baisse du nombre de vols avec Moscou

NICO
A380
Messages : 2059
Enregistré le : mer. 24 sept. 2008, 05:11

Re: Aéroport de Chambéry Savoie

Message par NICO » dim. 23 août 2015, 14:12

Pobera la nouvelle low cost russe va ouvrir Moscow VKO-Chambery 1 vol par semaine a partir de decembre

pierre
B777
Messages : 363
Enregistré le : jeu. 25 sept. 2008, 23:58
Localisation : CHAMBERY

Re: Aéroport de Chambéry Savoie

Message par pierre » mar. 8 sept. 2015, 11:37

Vols sur Tel Aviv du 09/01/2016 à fin mars 2016
IZ5347 TLV-CMF1530 738 6
IZ5348 CMF1630-TLV 738 6

Répondre

Retourner vers « Autres aéroports français »